Time;durP1;ratioP1;P1;durP2;ratioP2;P2;SDS_P1;SDS_P2;PMS_P1;PMS_P2;Temp;Humidity;BMP_temperature;BMP_pressure;BME280_temperature;BME280_humidity;BME280_pressure;Samples;Min_cycle;Max_cycle;Signal;HPM_P1;HPM_P2
2022/03/07 00:00:31;;;;;;;;;;;3.30;83.10;;;;;;5053432;28;19909;-64
2022/03/07 00:02:57;;;;;;;;;;;3.40;82.50;;;;;;5054145;28;19916;-73
2022/03/07 00:05:22;;;;;;;;;;;3.30;81.70;;;;;;5054666;28;20359;-65
2022/03/07 00:07:48;;;;;;;;;;;3.20;81.80;;;;;;5038258;28;19912;-64
2022/03/07 00:10:13;;;;;;;;;;;3.10;81.20;;;;;;5054595;28;20366;-68
2022/03/07 00:12:39;;;;;;;;;;;3.10;81.00;;;;;;5055024;28;20346;-63
2022/03/07 00:15:05;;;;;;;;;;;3.10;80.50;;;;;;5052948;28;19909;-64
2022/03/07 00:17:30;;;;;;;;;;;2.90;80.80;;;;;;5053689;28;19991;-62
2022/03/07 00:19:56;;;;;;;;;;;3.00;80.60;;;;;;5052875;28;19908;-64
2022/03/07 00:22:21;;;;;;;;;;;2.90;80.60;;;;;;5052404;28;19913;-64
2022/03/07 00:24:47;;;;;;;;;;;2.70;81.00;;;;;;5046871;28;19925;-64
2022/03/07 00:27:12;;;;;;;;;;;2.80;81.00;;;;;;5073094;28;19996;-64
2022/03/07 00:29:37;;;;;;;;;;;2.80;80.40;;;;;;5073456;28;19935;-64
2022/03/07 00:32:03;;;;;;;;;;;2.70;80.30;;;;;;5073089;28;20402;-65
2022/03/07 00:34:29;;;;;;;;;;;2.70;80.00;;;;;;5056027;28;19962;-64
2022/03/07 00:36:54;;;;;;;;;;;2.70;80.20;;;;;;5058625;28;19916;-62
2022/03/07 00:39:20;;;;;;;;;;;2.80;79.40;;;;;;5076044;28;19909;-63
2022/03/07 00:41:45;;;;;;;;;;;2.70;79.20;;;;;;5058561;28;19955;-63
2022/03/07 00:44:11;;;;;;;;;;;2.80;79.10;;;;;;5076243;28;20333;-63
2022/03/07 00:46:37;;;;;;;;;;;2.70;78.80;;;;;;5076350;28;20254;-63
2022/03/07 00:49:02;;;;;;;;;;;2.60;79.00;;;;;;5075721;28;20351;-65
2022/03/07 00:51:28;;;;;;;;;;;2.70;78.60;;;;;;5076030;28;19991;-62
2022/03/07 00:53:53;;;;;;;;;;;2.60;79.00;;;;;;5058130;28;20350;-64
2022/03/07 00:56:18;;;;;;;;;;;2.60;79.30;;;;;;5075667;28;19916;-64
2022/03/07 00:58:44;;;;;;;;;;;2.60;79.20;;;;;;5077182;28;19935;-63
2022/03/07 01:01:10;;;;;;;;;;;2.50;78.90;;;;;;5077779;28;19915;-64
2022/03/07 01:03:35;;;;;;;;;;;2.50;79.30;;;;;;5059636;28;20358;-69
2022/03/07 01:06:01;;;;;;;;;;;2.50;79.40;;;;;;5077606;28;20289;-76
2022/03/07 01:08:26;;;;;;;;;;;2.60;79.30;;;;;;5076715;28;19916;-62
2022/03/07 01:10:52;;;;;;;;;;;2.60;79.30;;;;;;5058109;28;19912;-63
2022/03/07 01:13:18;;;;;;;;;;;2.50;79.30;;;;;;5075347;28;19955;-64
2022/03/07 01:15:44;;;;;;;;;;;2.60;79.20;;;;;;5075794;28;20372;-65
2022/03/07 01:18:10;;;;;;;;;;;2.60;79.00;;;;;;5057174;28;19908;-64
2022/03/07 01:20:35;;;;;;;;;;;2.60;79.10;;;;;;5075505;28;19912;-64
2022/03/07 01:23:01;;;;;;;;;;;2.40;79.10;;;;;;5075693;28;20368;-63
2022/03/07 01:25:27;;;;;;;;;;;2.40;79.70;;;;;;5057474;28;19924;-63
2022/03/07 01:27:52;;;;;;;;;;;2.30;79.30;;;;;;5055560;28;20317;-63
2022/03/07 01:30:18;;;;;;;;;;;2.30;80.00;;;;;;5037057;28;19924;-62
2022/03/07 01:32:43;;;;;;;;;;;2.40;79.60;;;;;;5056667;28;19979;-63
2022/03/07 01:35:09;;;;;;;;;;;2.50;79.30;;;;;;5039354;28;19970;-69
2022/03/07 01:37:35;;;;;;;;;;;2.20;79.50;;;;;;5057441;28;19970;-63
2022/03/07 01:40:00;;;;;;;;;;;2.30;79.60;;;;;;5058081;28;19932;-63
2022/03/07 01:42:26;;;;;;;;;;;2.30;79.30;;;;;;5037995;28;19967;-63
2022/03/07 01:44:52;;;;;;;;;;;2.40;79.00;;;;;;5054998;28;19909;-63
2022/03/07 01:47:17;;;;;;;;;;;2.40;78.90;;;;;;5054816;28;20317;-63
2022/03/07 01:49:43;;;;;;;;;;;2.40;79.00;;;;;;5054966;28;19913;-63
2022/03/07 01:52:09;;;;;;;;;;;2.20;79.00;;;;;;5037000;28;20366;-62
2022/03/07 01:54:34;;;;;;;;;;;2.20;79.70;;;;;;5054936;28;19935;-63
2022/03/07 01:57:00;;;;;;;;;;;2.20;79.60;;;;;;5037998;28;19915;-64
2022/03/07 01:59:26;;;;;;;;;;;2.40;79.30;;;;;;5037464;28;20347;-64
2022/03/07 02:01:52;;;;;;;;;;;2.40;79.10;;;;;;5055088;28;19909;-62
2022/03/07 02:04:18;;;;;;;;;;;2.30;78.90;;;;;;5054349;28;19917;-63
2022/03/07 02:06:44;;;;;;;;;;;2.30;79.20;;;;;;5036907;28;19913;-63
2022/03/07 02:09:10;;;;;;;;;;;2.30;79.40;;;;;;5036214;28;19913;-63
2022/03/07 02:11:36;;;;;;;;;;;2.30;79.20;;;;;;5036845;28;20324;-63
2022/03/07 02:14:15;;;;;;;;;;;2.40;79.10;;;;;;5054874;28;20007;-63
2022/03/07 02:16:41;;;;;;;;;;;2.40;78.80;;;;;;5054507;28;20358;-63
2022/03/07 02:19:07;;;;;;;;;;;2.50;78.60;;;;;;5054061;28;19916;-63
2022/03/07 02:21:34;;;;;;;;;;;2.30;78.80;;;;;;5054674;28;19978;-63
2022/03/07 02:24:00;;;;;;;;;;;2.20;79.20;;;;;;5042353;28;19930;-63
2022/03/07 02:26:25;;;;;;;;;;;2.20;79.10;;;;;;5074586;28;20082;-62
2022/03/07 02:28:50;;;;;;;;;;;2.20;79.30;;;;;;5056387;28;19908;-63
2022/03/07 02:31:18;;;;;;;;;;;2.30;79.10;;;;;;5055984;28;19928;-64
2022/03/07 02:33:43;;;;;;;;;;;2.30;78.80;;;;;;5074113;28;20239;-62
2022/03/07 02:36:09;;;;;;;;;;;2.30;79.50;;;;;;5073852;28;19920;-63
2022/03/07 02:38:34;;;;;;;;;;;2.20;79.00;;;;;;5073943;28;19970;-61
2022/03/07 02:41:00;;;;;;;;;;;2.30;78.90;;;;;;5056067;28;20007;-62
2022/03/07 02:43:26;;;;;;;;;;;2.20;79.00;;;;;;5055570;28;20108;-63
2022/03/07 02:45:52;;;;;;;;;;;2.20;78.90;;;;;;5073990;28;19908;-62
2022/03/07 02:48:18;;;;;;;;;;;2.20;78.70;;;;;;5073624;28;20410;-63
2022/03/07 02:50:44;;;;;;;;;;;2.20;78.50;;;;;;5055926;28;19958;-62
2022/03/07 02:53:09;;;;;;;;;;;2.00;78.70;;;;;;5073394;28;20298;-63
2022/03/07 02:55:35;;;;;;;;;;;2.00;79.30;;;;;;5056106;28;19920;-63
2022/03/07 02:58:01;;;;;;;;;;;2.00;78.70;;;;;;5072898;28;19916;-63
2022/03/07 03:00:27;;;;;;;;;;;2.00;78.60;;;;;;5073332;28;20199;-62
2022/03/07 03:02:52;;;;;;;;;;;1.90;78.50;;;;;;5073347;28;19908;-63
2022/03/07 03:05:18;;;;;;;;;;;1.90;78.60;;;;;;5073306;28;19954;-62
2022/03/07 03:07:43;;;;;;;;;;;1.90;78.50;;;;;;5073610;28;19913;-64
2022/03/07 03:10:09;;;;;;;;;;;1.90;79.10;;;;;;5073230;28;19920;-67
2022/03/07 03:12:35;;;;;;;;;;;2.00;78.20;;;;;;5073668;28;20354;-62
2022/03/07 03:15:00;;;;;;;;;;;1.90;77.70;;;;;;5073521;28;19914;-63
2022/03/07 03:17:26;;;;;;;;;;;1.90;78.40;;;;;;5055208;28;20315;-63
2022/03/07 03:19:52;;;;;;;;;;;1.90;78.40;;;;;;5056561;28;20324;-63
2022/03/07 03:22:19;;;;;;;;;;;1.90;78.90;;;;;;5056313;28;19913;-67
2022/03/07 03:24:48;;;;;;;;;;;1.80;79.30;;;;;;5058034;28;19956;-67
2022/03/07 03:27:14;;;;;;;;;;;1.80;79.50;;;;;;5075441;28;19909;-64
2022/03/07 03:29:39;;;;;;;;;;;1.90;79.60;;;;;;5075049;28;19923;-63
2022/03/07 03:32:05;;;;;;;;;;;1.90;79.60;;;;;;5074488;28;20247;-63
2022/03/07 03:34:31;;;;;;;;;;;1.80;79.90;;;;;;5074399;28;19908;-63
2022/03/07 03:36:56;;;;;;;;;;;1.80;80.10;;;;;;5075579;28;19913;-65
2022/03/07 03:39:22;;;;;;;;;;;1.90;79.80;;;;;;5074691;28;19915;-66
2022/03/07 03:41:47;;;;;;;;;;;1.80;80.10;;;;;;5074821;28;19955;-66
2022/03/07 03:44:13;;;;;;;;;;;1.60;80.50;;;;;;5073428;28;20007;-63
2022/03/07 03:46:39;;;;;;;;;;;1.60;80.80;;;;;;5073375;28;19912;-63
2022/03/07 03:49:05;;;;;;;;;;;1.60;80.90;;;;;;5074312;28;19936;-65
2022/03/07 03:51:31;;;;;;;;;;;1.70;81.40;;;;;;5039356;28;19917;-64
2022/03/07 03:53:57;;;;;;;;;;;1.70;81.40;;;;;;5074525;28;19915;-63
2022/03/07 03:56:23;;;;;;;;;;;1.80;83.30;;;;;;5056129;28;19917;-63
2022/03/07 03:58:48;;;;;;;;;;;1.70;82.50;;;;;;5074014;28;19944;-63
2022/03/07 04:01:14;;;;;;;;;;;1.60;82.90;;;;;;5073501;28;19915;-62
2022/03/07 04:03:39;;;;;;;;;;;1.70;84.30;;;;;;5073022;28;19973;-63
2022/03/07 04:06:06;;;;;;;;;;;1.60;82.70;;;;;;5073096;28;19915;-63
2022/03/07 04:08:32;;;;;;;;;;;1.70;82.20;;;;;;5074023;28;20162;-63
2022/03/07 04:10:58;;;;;;;;;;;1.70;82.60;;;;;;5076862;28;19912;-64
2022/03/07 04:13:23;;;;;;;;;;;1.70;82.90;;;;;;5076591;28;19934;-63
2022/03/07 04:15:49;;;;;;;;;;;1.70;82.50;;;;;;5077116;28;19912;-64
2022/03/07 04:18:14;;;;;;;;;;;1.80;82.40;;;;;;5076895;28;19909;-62
2022/03/07 04:20:40;;;;;;;;;;;1.80;82.20;;;;;;5077415;28;19916;-64
2022/03/07 04:23:05;;;;;;;;;;;1.80;81.70;;;;;;5077028;28;20262;-63
2022/03/07 04:25:33;;;;;;;;;;;1.80;81.60;;;;;;5058291;28;20285;-62
2022/03/07 04:27:59;;;;;;;;;;;2.00;81.20;;;;;;5056878;28;19913;-63
2022/03/07 04:30:25;;;;;;;;;;;1.90;80.30;;;;;;5038468;28;19999;-63
2022/03/07 04:32:50;;;;;;;;;;;2.10;79.50;;;;;;5056790;28;20029;-62
2022/03/07 04:35:16;;;;;;;;;;;2.20;79.50;;;;;;5054349;28;20436;-65
2022/03/07 04:37:41;;;;;;;;;;;2.10;79.60;;;;;;5073684;28;20419;-64
2022/03/07 04:40:18;;;;;;;;;;;2.00;80.00;;;;;;5074982;28;19920;-66
2022/03/07 04:42:44;;;;;;;;;;;2.00;80.30;;;;;;5076887;28;20025;-66
2022/03/07 04:45:11;;;;;;;;;;;2.10;80.70;;;;;;5076736;28;19915;-63
2022/03/07 04:47:37;;;;;;;;;;;2.20;79.90;;;;;;5058087;28;19908;-63
2022/03/07 04:50:03;;;;;;;;;;;2.20;79.80;;;;;;5076654;28;19918;-63
2022/03/07 04:52:28;;;;;;;;;;;2.20;79.60;;;;;;5057927;28;19920;-62
2022/03/07 04:54:54;;;;;;;;;;;2.20;79.50;;;;;;5076401;28;19919;-64
2022/03/07 04:57:19;;;;;;;;;;;2.30;79.60;;;;;;5076087;28;19916;-63
2022/03/07 04:59:45;;;;;;;;;;;2.20;79.40;;;;;;5076201;28;20346;-62
2022/03/07 05:02:13;;;;;;;;;;;2.20;79.30;;;;;;5076348;28;19913;-62
2022/03/07 05:04:39;;;;;;;;;;;2.40;78.50;;;;;;5057925;28;19908;-63
2022/03/07 05:07:04;;;;;;;;;;;2.30;78.60;;;;;;5075999;28;19908;-67
2022/03/07 05:09:30;;;;;;;;;;;2.20;78.60;;;;;;5075072;28;19912;-67
2022/03/07 05:11:55;;;;;;;;;;;2.30;78.60;;;;;;5076179;28;19916;-62
2022/03/07 05:14:21;;;;;;;;;;;2.30;78.00;;;;;;5075129;28;19962;-63
2022/03/07 05:16:46;;;;;;;;;;;2.30;77.80;;;;;;5075944;28;20265;-65
2022/03/07 05:19:12;;;;;;;;;;;2.40;77.40;;;;;;5058535;28;19909;-66
2022/03/07 05:21:37;;;;;;;;;;;2.30;77.60;;;;;;5056747;28;19959;-62
2022/03/07 05:24:03;;;;;;;;;;;2.30;77.20;;;;;;5082245;28;20257;-62
2022/03/07 05:26:29;;;;;;;;;;;2.20;77.30;;;;;;5096644;28;20336;-63
2022/03/07 05:28:54;;;;;;;;;;;2.10;77.40;;;;;;5097114;28;20357;-63
2022/03/07 05:31:20;;;;;;;;;;;2.10;77.30;;;;;;5097376;28;19958;-63
2022/03/07 05:33:45;;;;;;;;;;;2.20;77.40;;;;;;5097990;28;19916;-63
2022/03/07 05:36:11;;;;;;;;;;;2.20;77.30;;;;;;5080101;28;20003;-64
2022/03/07 05:38:36;;;;;;;;;;;2.10;77.40;;;;;;5078186;28;20092;-63
2022/03/07 05:41:02;;;;;;;;;;;2.10;77.20;;;;;;5096537;28;19908;-65
2022/03/07 05:43:27;;;;;;;;;;;2.10;76.30;;;;;;5095089;28;19998;-65
2022/03/07 05:45:53;;;;;;;;;;;2.10;76.40;;;;;;5096422;28;19908;-62
2022/03/07 05:48:18;;;;;;;;;;;2.00;75.90;;;;;;5079093;28;20350;-68
2022/03/07 05:50:44;;;;;;;;;;;2.10;75.90;;;;;;5079282;28;19969;-66
2022/03/07 05:53:09;;;;;;;;;;;1.80;76.00;;;;;;5079079;28;20277;-65
2022/03/07 05:55:35;;;;;;;;;;;1.90;76.50;;;;;;5097262;28;19923;-62
2022/03/07 05:58:00;;;;;;;;;;;1.80;76.40;;;;;;5095668;28;19935;-63
2022/03/07 06:00:27;;;;;;;;;;;1.80;77.00;;;;;;5094975;28;19908;-65
2022/03/07 06:02:52;;;;;;;;;;;2.00;76.50;;;;;;5095581;28;19908;-65
2022/03/07 06:05:18;;;;;;;;;;;1.90;77.00;;;;;;5077441;28;19908;-64
2022/03/07 06:07:44;;;;;;;;;;;1.90;77.00;;;;;;5096299;28;19912;-65
2022/03/07 06:10:10;;;;;;;;;;;1.80;76.90;;;;;;5077478;28;19919;-63
2022/03/07 06:12:35;;;;;;;;;;;1.90;76.40;;;;;;5076481;28;19951;-64
2022/03/07 06:15:03;;;;;;;;;;;1.90;76.20;;;;;;5076895;28;20000;-64
2022/03/07 06:17:30;;;;;;;;;;;1.90;76.10;;;;;;5076544;28;19912;-66
2022/03/07 06:19:55;;;;;;;;;;;1.70;76.50;;;;;;5094763;28;19931;-64
2022/03/07 06:22:21;;;;;;;;;;;1.70;76.80;;;;;;5090801;28;19912;-67
2022/03/07 06:24:46;;;;;;;;;;;1.80;77.00;;;;;;5095031;28;19955;-63
2022/03/07 06:27:12;;;;;;;;;;;1.80;76.20;;;;;;5081420;28;19972;-64
2022/03/07 06:29:37;;;;;;;;;;;1.90;76.20;;;;;;5076985;28;19913;-64
2022/03/07 06:32:03;;;;;;;;;;;3.90;97.90;;;;;;5093280;28;19947;-67
2022/03/07 06:34:28;;;;;;;;;;;4.30;89.70;;;;;;5094223;28;20047;-65
2022/03/07 06:36:54;;;;;;;;;;;4.40;80.90;;;;;;5090035;28;19908;-64
2022/03/07 06:39:25;;;;;;;;;;;3.70;76.70;;;;;;5088855;28;20316;-64
2022/03/07 06:41:51;;;;;;;;;;;2.90;77.30;;;;;;5092480;28;20349;-64
2022/03/07 06:44:16;;;;;;;;;;;2.40;78.90;;;;;;5076959;28;19908;-64
2022/03/07 06:46:42;;;;;;;;;;;2.20;79.40;;;;;;5078273;28;19921;-62
2022/03/07 06:49:07;;;;;;;;;;;2.40;79.60;;;;;;5074565;28;19925;-66
2022/03/07 06:51:33;;;;;;;;;;;2.50;79.20;;;;;;5055418;28;20358;-64
2022/03/07 06:53:59;;;;;;;;;;;2.60;79.50;;;;;;5074839;28;19924;-65
2022/03/07 06:56:24;;;;;;;;;;;2.70;79.10;;;;;;5057015;28;19917;-64
2022/03/07 06:58:50;;;;;;;;;;;2.70;78.80;;;;;;5074115;28;20377;-64
2022/03/07 07:01:15;;;;;;;;;;;2.80;78.70;;;;;;5039952;28;19920;-63
2022/03/07 07:03:40;;;;;;;;;;;2.90;78.10;;;;;;5073268;28;20392;-62
2022/03/07 07:06:06;;;;;;;;;;;3.00;77.80;;;;;;5080088;28;19908;-63
2022/03/07 07:08:32;;;;;;;;;;;3.30;77.20;;;;;;5093892;28;19947;-63
2022/03/07 07:10:57;;;;;;;;;;;3.40;77.30;;;;;;5094244;28;19912;-65
2022/03/07 07:13:23;;;;;;;;;;;3.40;76.40;;;;;;5093611;28;20430;-62
2022/03/07 07:15:55;;;;;;;;;;;3.40;76.50;;;;;;5075589;28;19978;-65
2022/03/07 07:18:21;;;;;;;;;;;3.30;76.40;;;;;;5075947;28;19909;-64
2022/03/07 07:20:46;;;;;;;;;;;3.60;76.20;;;;;;5075082;28;20250;-65
2022/03/07 07:23:12;;;;;;;;;;;3.60;75.70;;;;;;5094170;28;19916;-66
2022/03/07 07:25:37;;;;;;;;;;;3.60;75.60;;;;;;5093678;28;20005;-63
2022/03/07 07:28:03;;;;;;;;;;;3.70;75.20;;;;;;5094627;28;19931;-71
2022/03/07 07:30:29;;;;;;;;;;;3.60;75.30;;;;;;5081833;28;19917;-64
2022/03/07 07:32:54;;;;;;;;;;;3.80;75.40;;;;;;5080759;28;20349;-64
2022/03/07 07:35:20;;;;;;;;;;;4.00;75.10;;;;;;5082869;28;20374;-65
2022/03/07 07:37:45;;;;;;;;;;;3.90;75.30;;;;;;5064669;28;20366;-67
2022/03/07 07:40:11;;;;;;;;;;;4.00;75.10;;;;;;5055785;28;20361;-67
2022/03/07 07:42:36;;;;;;;;;;;3.90;75.30;;;;;;5085130;28;19912;-64
2022/03/07 07:45:02;;;;;;;;;;;3.80;75.40;;;;;;5075633;28;19961;-65
2022/03/07 07:47:28;;;;;;;;;;;3.90;76.30;;;;;;5075709;28;19990;-70
2022/03/07 07:49:53;;;;;;;;;;;4.10;75.30;;;;;;5075402;28;19997;-67
2022/03/07 07:52:19;;;;;;;;;;;4.00;74.80;;;;;;5093597;28;20368;-65
2022/03/07 07:54:44;;;;;;;;;;;4.20;74.30;;;;;;5071482;28;20369;-65
2022/03/07 07:57:12;;;;;;;;;;;4.30;73.60;;;;;;5084224;28;19908;-66
2022/03/07 07:59:38;;;;;;;;;;;4.40;73.20;;;;;;5074778;28;20445;-66
2022/03/07 08:02:04;;;;;;;;;;;4.50;73.00;;;;;;5070895;28;20358;-65
2022/03/07 08:04:29;;;;;;;;;;;4.60;73.00;;;;;;5069202;28;19920;-65
2022/03/07 08:06:55;;;;;;;;;;;4.70;72.80;;;;;;5087882;28;19912;-64
2022/03/07 08:09:20;;;;;;;;;;;5.00;72.20;;;;;;5064891;28;20357;-64
2022/03/07 08:11:46;;;;;;;;;;;4.90;72.20;;;;;;5086409;28;20352;-65
2022/03/07 08:14:11;;;;;;;;;;;4.90;72.10;;;;;;5071890;28;20349;-65
2022/03/07 08:16:37;;;;;;;;;;;4.70;72.40;;;;;;5080684;28;20293;-64
2022/03/07 08:19:03;;;;;;;;;;;4.90;72.30;;;;;;5087633;28;19912;-71
2022/03/07 08:21:28;;;;;;;;;;;4.60;72.40;;;;;;5066764;28;19919;-75
2022/03/07 08:23:55;;;;;;;;;;;4.80;72.80;;;;;;5069059;28;20349;-66
2022/03/07 08:26:20;;;;;;;;;;;5.10;72.10;;;;;;5081167;28;19956;-65
2022/03/07 08:28:46;;;;;;;;;;;5.00;71.60;;;;;;5080303;28;19912;-65
2022/03/07 08:31:11;;;;;;;;;;;5.20;72.20;;;;;;5080453;28;19960;-66
2022/03/07 08:33:37;;;;;;;;;;;5.40;73.10;;;;;;5064353;28;19912;-64
2022/03/07 08:36:03;;;;;;;;;;;5.60;72.20;;;;;;5064611;28;19908;-65
2022/03/07 08:38:28;;;;;;;;;;;5.90;70.60;;;;;;5081157;28;19946;-76
2022/03/07 08:40:54;;;;;;;;;;;5.80;75.30;;;;;;5080656;28;20303;-65
2022/03/07 08:43:20;;;;;;;;;;;6.20;84.30;;;;;;5089450;28;19912;-66
2022/03/07 08:45:45;;;;;;;;;;;6.20;86.10;;;;;;5064316;28;20006;-63
2022/03/07 08:48:11;;;;;;;;;;;6.10;83.00;;;;;;5065483;28;19922;-66
2022/03/07 08:50:36;;;;;;;;;;;6.60;79.00;;;;;;5089031;28;19912;-63
2022/03/07 08:53:02;;;;;;;;;;;6.90;89.00;;;;;;5074337;28;19916;-62
2022/03/07 08:55:27;;;;;;;;;;;6.60;72.60;;;;;;5089410;28;19974;-64
2022/03/07 08:57:53;;;;;;;;;;;6.50;70.00;;;;;;5089591;28;19908;-63
2022/03/07 09:00:18;;;;;;;;;;;6.70;69.30;;;;;;5090822;28;19918;-68
2022/03/07 09:02:44;;;;;;;;;;;7.40;68.50;;;;;;5061273;28;19912;-64
2022/03/07 09:05:10;;;;;;;;;;;8.10;67.80;;;;;;5075861;28;19999;-65
2022/03/07 09:07:35;;;;;;;;;;;8.20;65.10;;;;;;5086565;28;20357;-65
2022/03/07 09:10:01;;;;;;;;;;;7.50;66.10;;;;;;5063156;28;20393;-63
2022/03/07 09:12:29;;;;;;;;;;;8.10;65.10;;;;;;5084749;28;20010;-64
2022/03/07 09:14:55;;;;;;;;;;;;;;;;;;5076918;28;20464;-63
2022/03/07 09:17:21;;;;;;;;;;;;;;;;;;5075510;28;19955;-66
2022/03/07 09:19:47;;;;;;;;;;;;;;;;;;5077113;28;19948;-65
2022/03/07 09:22:12;;;;;;;;;;;10.30;60.10;;;;;;5082766;28;19909;-64
2022/03/07 09:24:38;;;;;;;;;;;10.50;59.30;;;;;;5096817;28;20377;-68
2022/03/07 09:27:04;;;;;;;;;;;10.40;58.70;;;;;;5059004;28;20270;-68
2022/03/07 09:29:30;;;;;;;;;;;10.40;58.20;;;;;;5095862;28;19920;-64
2022/03/07 09:31:56;;;;;;;;;;;8.90;59.10;;;;;;5087374;28;19917;-64
2022/03/07 09:34:21;;;;;;;;;;;8.50;61.50;;;;;;5077328;28;20261;-63
2022/03/07 09:36:47;;;;;;;;;;;9.90;60.00;;;;;;5070388;28;20253;-65
2022/03/07 09:39:12;;;;;;;;;;;9.10;60.90;;;;;;5079189;28;19908;-66
2022/03/07 09:41:40;;;;;;;;;;;10.00;59.50;;;;;;5075584;28;20280;-64
2022/03/07 09:44:05;;;;;;;;;;;10.50;58.90;;;;;;5083261;28;19916;-68
2022/03/07 09:46:31;;;;;;;;;;;11.30;57.50;;;;;;5092996;28;19912;-66
2022/03/07 09:48:56;;;;;;;;;;;11.50;56.90;;;;;;5068077;28;20314;-66
2022/03/07 09:51:22;;;;;;;;;;;12.00;56.10;;;;;;5090571;28;19912;-65
2022/03/07 09:53:47;;;;;;;;;;;12.00;55.70;;;;;;5071269;28;20277;-65
2022/03/07 09:56:13;;;;;;;;;;;12.00;54.30;;;;;;5095514;28;19912;-64
2022/03/07 09:58:38;;;;;;;;;;;9.10;57.50;;;;;;5094248;28;20019;-64
2022/03/07 10:01:05;;;;;;;;;;;8.10;59.10;;;;;;5074967;28;19912;-65
2022/03/07 10:03:31;;;;;;;;;;;8.50;59.60;;;;;;5075910;28;20010;-64
2022/03/07 10:05:57;;;;;;;;;;;9.70;57.50;;;;;;5094303;28;19993;-64
2022/03/07 10:08:26;;;;;;;;;;;9.70;57.20;;;;;;5083302;28;20276;-64
2022/03/07 10:10:53;;;;;;;;;;;9.60;58.40;;;;;;5065093;28;19916;-67
2022/03/07 10:13:19;;;;;;;;;;;10.40;56.90;;;;;;5077534;28;19919;-69
2022/03/07 10:15:53;;;;;;;;;;;11.10;55.80;;;;;;5094178;28;20387;-66
2022/03/07 10:18:19;;;;;;;;;;;10.90;63.80;;;;;;5094722;28;20131;-66
2022/03/07 10:20:57;;;;;;;;;;;12.00;91.60;;;;;;5093984;28;19908;-66
2022/03/07 10:23:27;;;;;;;;;;;13.20;95.20;;;;;;5074610;28;19962;-67
2022/03/07 10:26:03;;;;;;;;;;;13.50;96.80;;;;;;5085314;28;19924;-68
2022/03/07 10:28:33;;;;;;;;;;;14.20;78.20;;;;;;5093694;28;19916;-66
2022/03/07 10:30:58;;;;;;;;;;;13.40;67.70;;;;;;5070060;28;19923;-64
2022/03/07 10:33:26;;;;;;;;;;;12.60;55.70;;;;;;5056116;28;20029;-65
2022/03/07 10:35:54;;;;;;;;;;;11.10;56.90;;;;;;5055569;28;19965;-65
2022/03/07 10:38:21;;;;;;;;;;;12.00;56.40;;;;;;5077597;28;20006;-64
2022/03/07 10:40:48;;;;;;;;;;;12.80;54.70;;;;;;5071170;28;19919;-64
2022/03/07 10:43:14;;;;;;;;;;;13.40;54.10;;;;;;5085044;28;19908;-64
2022/03/07 10:45:47;;;;;;;;;;;13.20;54.00;;;;;;5065458;28;19916;-66
2022/03/07 10:48:12;;;;;;;;;;;13.30;53.90;;;;;;5073619;28;19909;-70
2022/03/07 10:50:38;;;;;;;;;;;13.00;53.50;;;;;;5073027;28;19912;-66
2022/03/07 10:53:05;;;;;;;;;;;13.50;53.10;;;;;;5073448;28;19916;-65
2022/03/07 10:55:31;;;;;;;;;;;14.30;52.50;;;;;;5073150;28;20380;-65
2022/03/07 10:58:13;;;;;;;;;;;14.20;51.40;;;;;;5081814;28;19916;-66
2022/03/07 11:00:58;;;;;;;;;;;14.30;51.80;;;;;;5074998;28;19915;-65
2022/03/07 11:03:25;;;;;;;;;;;14.00;51.50;;;;;;5093843;28;20365;-69
2022/03/07 11:05:51;;;;;;;;;;;13.00;51.80;;;;;;5086722;28;19995;-69
2022/03/07 11:08:17;;;;;;;;;;;12.80;52.70;;;;;;5084091;28;19945;-66
2022/03/07 11:10:46;;;;;;;;;;;12.90;53.00;;;;;;5088718;28;19923;-66
2022/03/07 11:13:12;;;;;;;;;;;12.50;53.30;;;;;;5075147;28;19961;-64
2022/03/07 11:15:38;;;;;;;;;;;12.80;53.20;;;;;;5081680;28;19916;-74
2022/03/07 11:18:04;;;;;;;;;;;13.20;52.60;;;;;;5062858;28;19952;-68
2022/03/07 11:20:30;;;;;;;;;;;13.20;52.70;;;;;;5060683;28;19912;-66
2022/03/07 11:22:55;;;;;;;;;;;12.80;52.50;;;;;;5084171;28;19921;-66
2022/03/07 11:25:21;;;;;;;;;;;12.90;53.20;;;;;;5093848;28;19924;-68
2022/03/07 11:27:46;;;;;;;;;;;13.30;53.30;;;;;;5093303;28;19908;-69
2022/03/07 11:30:19;;;;;;;;;;;13.00;52.30;;;;;;5093668;28;19981;-69
2022/03/07 11:32:45;;;;;;;;;;;10.90;54.80;;;;;;5074902;28;19913;-66
2022/03/07 11:35:11;;;;;;;;;;;10.00;56.20;;;;;;5094162;28;19908;-65
2022/03/07 11:37:37;;;;;;;;;;;9.90;56.20;;;;;;5068983;28;20457;-64
2022/03/07 11:40:14;;;;;;;;;;;10.90;56.00;;;;;;5072707;28;20271;-65
2022/03/07 11:42:40;;;;;;;;;;;9.50;56.80;;;;;;5081273;28;20011;-69
2022/03/07 11:45:07;;;;;;;;;;;10.20;57.80;;;;;;5090678;28;19938;-67
2022/03/07 11:47:40;;;;;;;;;;;10.20;57.00;;;;;;5075525;28;19958;-69
2022/03/07 11:50:06;;;;;;;;;;;10.20;56.80;;;;;;5094426;28;20023;-66
2022/03/07 11:52:31;;;;;;;;;;;10.70;57.30;;;;;;5074627;28;19916;-66
2022/03/07 11:54:59;;;;;;;;;;;11.10;55.70;;;;;;5088169;28;20261;-71
2022/03/07 11:57:38;;;;;;;;;;;11.10;55.80;;;;;;5075989;28;19915;-64
2022/03/07 12:00:23;;;;;;;;;;;11.80;55.40;;;;;;5092662;28;19918;-66
2022/03/07 12:02:51;;;;;;;;;;;12.60;54.70;;;;;;5068977;28;20357;-66
2022/03/07 12:05:21;;;;;;;;;;;12.50;53.90;;;;;;5074839;28;20014;-67
2022/03/07 12:07:46;;;;;;;;;;;12.30;53.50;;;;;;5088037;28;19916;-64
2022/03/07 12:10:12;;;;;;;;;;;11.50;54.40;;;;;;5054834;28;19928;-66
2022/03/07 12:12:37;;;;;;;;;;;11.40;55.50;;;;;;5055009;28;19913;-66
2022/03/07 12:15:10;;;;;;;;;;;12.30;54.60;;;;;;5073191;28;20293;-65
2022/03/07 12:17:35;;;;;;;;;;;12.50;53.20;;;;;;5055507;28;19939;-66
2022/03/07 12:20:01;;;;;;;;;;;11.30;54.20;;;;;;5055150;28;20080;-65
2022/03/07 12:22:28;;;;;;;;;;;11.10;55.20;;;;;;5073584;28;20257;-65
2022/03/07 12:24:57;;;;;;;;;;;11.10;54.70;;;;;;5072532;28;19929;-66
2022/03/07 12:27:23;;;;;;;;;;;12.00;53.70;;;;;;5010743;28;20312;-66
2022/03/07 12:29:49;;;;;;;;;;;10.80;55.60;;;;;;4995484;28;19984;-64
2022/03/07 12:32:15;;;;;;;;;;;11.20;55.40;;;;;;5014429;28;20004;-64
2022/03/07 12:34:40;;;;;;;;;;;10.80;55.30;;;;;;5015184;28;19976;-66
2022/03/07 12:37:10;;;;;;;;;;;10.90;55.90;;;;;;5014343;28;19910;-64
2022/03/07 12:39:46;;;;;;;;;;;9.70;57.10;;;;;;5014631;28;19957;-65
2022/03/07 12:42:12;;;;;;;;;;;10.10;57.60;;;;;;5014458;28;19909;-65
2022/03/07 12:44:38;;;;;;;;;;;11.10;54.70;;;;;;5014302;28;20051;-65
2022/03/07 12:47:04;;;;;;;;;;;9.20;57.00;;;;;;5013987;28;19913;-67
2022/03/07 12:49:29;;;;;;;;;;;9.60;56.90;;;;;;5014604;28;19925;-70
2022/03/07 12:51:55;;;;;;;;;;;11.00;56.20;;;;;;5013535;28;20275;-64
2022/03/07 12:54:28;;;;;;;;;;;12.30;54.30;;;;;;5013989;28;19917;-65
2022/03/07 12:56:54;;;;;;;;;;;12.80;53.40;;;;;;5013815;28;19945;-65
2022/03/07 12:59:27;;;;;;;;;;;13.20;53.20;;;;;;5069716;28;19913;-65
2022/03/07 13:01:53;;;;;;;;;;;13.90;52.80;;;;;;5075206;28;19908;-65
2022/03/07 13:04:19;;;;;;;;;;;13.90;52.00;;;;;;5075704;28;20008;-65
2022/03/07 13:06:48;;;;;;;;;;;13.50;52.30;;;;;;5075154;28;19940;-69
2022/03/07 13:09:15;;;;;;;;;;;13.30;52.00;;;;;;5075708;28;19914;-65
2022/03/07 13:11:42;;;;;;;;;;;12.30;53.10;;;;;;5075433;28;19913;-65
2022/03/07 13:14:08;;;;;;;;;;;12.20;53.00;;;;;;5074805;28;20289;-65
2022/03/07 13:16:36;;;;;;;;;;;12.00;53.80;;;;;;5075899;28;19909;-63
2022/03/07 13:19:06;;;;;;;;;;;12.10;53.10;;;;;;5075407;28;20022;-65
2022/03/07 13:21:40;;;;;;;;;;;11.50;54.00;;;;;;5076025;28;19908;-69
2022/03/07 13:24:06;;;;;;;;;;;11.10;54.70;;;;;;5075974;28;20481;-67
2022/03/07 13:26:32;;;;;;;;;;;10.30;55.90;;;;;;5057475;28;19913;-66
2022/03/07 13:29:09;;;;;;;;;;;11.10;55.10;;;;;;5075279;28;20245;-66
2022/03/07 13:31:41;;;;;;;;;;;11.70;55.00;;;;;;5075477;28;20386;-65
2022/03/07 13:34:07;;;;;;;;;;;12.80;53.30;;;;;;5074897;28;19920;-66
2022/03/07 13:36:43;;;;;;;;;;;13.60;52.70;;;;;;5075210;28;19908;-64
2022/03/07 13:39:20;;;;;;;;;;;13.10;52.00;;;;;;5074734;28;19912;-66
2022/03/07 13:41:50;;;;;;;;;;;13.00;52.20;;;;;;5056543;28;19912;-65
2022/03/07 13:44:16;;;;;;;;;;;13.40;52.10;;;;;;5057340;28;20061;-64
2022/03/07 13:46:51;;;;;;;;;;;13.60;52.20;;;;;;5076793;28;19956;-69
2022/03/07 13:49:17;;;;;;;;;;;13.20;51.30;;;;;;5075148;28;19915;-65
2022/03/07 13:51:42;;;;;;;;;;;13.20;52.40;;;;;;5075408;28;19912;-66
2022/03/07 13:54:08;;;;;;;;;;;14.00;51.60;;;;;;5056191;28;19924;-65
2022/03/07 13:56:34;;;;;;;;;;;14.40;51.10;;;;;;5072600;28;19912;-66
2022/03/07 13:59:09;;;;;;;;;;;13.10;51.90;;;;;;5073821;28;19919;-64
2022/03/07 14:01:34;;;;;;;;;;;12.90;52.70;;;;;;5074525;28;19908;-64
2022/03/07 14:04:14;;;;;;;;;;;12.80;52.10;;;;;;5072870;28;20255;-66
2022/03/07 14:06:39;;;;;;;;;;;12.90;52.30;;;;;;5074855;28;19912;-65
2022/03/07 14:09:08;;;;;;;;;;;12.20;53.10;;;;;;5056149;28;20007;-68
2022/03/07 14:11:34;;;;;;;;;;;12.50;53.10;;;;;;5074453;28;19916;-66
2022/03/07 14:13:59;;;;;;;;;;;13.10;52.30;;;;;;5072954;28;19926;-64
2022/03/07 14:16:34;;;;;;;;;;;12.90;51.90;;;;;;5073846;28;19909;-66
2022/03/07 14:18:59;;;;;;;;;;;12.90;52.50;;;;;;5055317;28;19978;-67
2022/03/07 14:21:27;;;;;;;;;;;12.10;52.40;;;;;;5075926;28;20415;-67